createdAt,value
2022-09-20T00:00:10.945Z,91.67
2022-09-20T00:01:11.619Z,91.99
2022-09-20T00:02:10.881Z,91.88
2022-09-20T00:03:10.879Z,91.99
2022-09-20T00:04:10.877Z,92.19
2022-09-20T00:05:10.983Z,91.78
2022-09-20T00:06:10.846Z,92.08
2022-09-20T00:07:10.864Z,92.19
2022-09-20T00:08:10.839Z,91.67
2022-09-20T00:09:10.829Z,92.40
2022-09-20T00:10:10.819Z,92.08
2022-09-20T00:11:10.806Z,91.88
2022-09-20T00:12:10.801Z,92.95
2022-09-20T00:13:10.756Z,92.44
2022-09-20T00:14:10.829Z,92.80
2022-09-20T00:15:10.760Z,92.44
2022-09-20T00:16:10.824Z,92.80
2022-09-20T00:17:10.743Z,92.40
2022-09-20T00:18:10.752Z,92.70
2022-09-20T00:19:10.779Z,92.80
2022-09-20T00:20:10.695Z,91.88
2022-09-20T00:21:10.680Z,92.64
2022-09-20T00:22:10.663Z,92.74
2022-09-20T00:23:10.695Z,92.13
2022-09-20T00:24:10.688Z,92.44
2022-09-20T00:25:10.654Z,92.23
2022-09-20T00:26:10.623Z,92.08
2022-09-20T00:27:10.630Z,92.13
2022-09-20T00:28:10.636Z,92.33
2022-09-20T00:29:10.720Z,92.29
2022-09-20T00:30:10.577Z,92.50
2022-09-20T00:31:10.573Z,92.54
2022-09-20T00:32:10.647Z,92.44
2022-09-20T00:33:10.560Z,92.54
2022-09-20T00:34:10.560Z,93.05
2022-09-20T00:35:10.562Z,92.64
2022-09-20T00:36:10.540Z,92.95
2022-09-20T00:37:10.567Z,92.64
2022-09-20T00:38:10.492Z,92.74
2022-09-20T00:39:10.530Z,92.85
2022-09-20T00:40:10.547Z,92.44
2022-09-20T00:41:10.540Z,92.33
2022-09-20T00:42:10.529Z,93.46
2022-09-20T00:43:10.461Z,93.26
2022-09-20T00:44:10.439Z,93.26
2022-09-20T00:45:10.431Z,93.57
2022-09-20T00:46:10.452Z,92.74
2022-09-20T00:47:10.427Z,92.74
2022-09-20T00:48:10.462Z,93.46
2022-09-20T00:49:10.435Z,93.26
2022-09-20T00:50:10.361Z,93.16
2022-09-20T00:51:10.368Z,93.16
2022-09-20T00:52:10.344Z,93.16
2022-09-20T00:53:10.348Z,93.61
2022-09-20T00:54:10.342Z,93.30
2022-09-20T00:55:10.329Z,93.82
2022-09-20T00:56:10.322Z,93.92
2022-09-20T00:57:10.364Z,93.82
2022-09-20T00:58:10.330Z,93.92
2022-09-20T00:59:10.326Z,94.23
2022-09-20T01:00:10.254Z,94.12
2022-09-20T01:01:10.365Z,94.02
2022-09-20T01:02:10.282Z,94.37
2022-09-20T01:03:10.337Z,94.68
2022-09-20T01:04:10.227Z,94.48
2022-09-20T01:05:10.224Z,94.48
2022-09-20T01:06:10.242Z,94.37
2022-09-20T01:07:10.187Z,95.09
2022-09-20T01:08:10.169Z,94.68
2022-09-20T01:09:10.327Z,94.68
2022-09-20T01:10:10.177Z,95.30
2022-09-20T01:11:10.146Z,95.34
2022-09-20T01:12:10.193Z,95.55
2022-09-20T01:13:10.137Z,95.55
2022-09-20T01:14:10.133Z,96.17
2022-09-20T01:15:10.114Z,96.11
2022-09-20T01:16:10.169Z,96.31
2022-09-20T01:17:10.069Z,96.17
2022-09-20T01:18:10.070Z,95.75
2022-09-20T01:19:10.166Z,96.06
2022-09-20T01:20:10.051Z,95.96
2022-09-20T01:21:10.032Z,95.65
2022-09-20T01:22:10.081Z,96.12
2022-09-20T01:23:10.111Z,96.27
2022-09-20T01:24:10.030Z,95.61
2022-09-20T01:25:09.992Z,95.50
2022-09-20T01:26:09.971Z,95.50
2022-09-20T01:27:09.960Z,94.58
2022-09-20T01:28:09.951Z,94.78
2022-09-20T01:29:09.988Z,94.68
2022-09-20T01:30:09.993Z,94.99
2022-09-20T01:31:09.926Z,94.99
2022-09-20T01:32:09.960Z,94.89
2022-09-20T01:33:09.908Z,94.68
2022-09-20T01:34:09.884Z,94.68
2022-09-20T01:35:09.922Z,95.09
2022-09-20T01:36:09.942Z,95.40
2022-09-20T01:37:09.865Z,95.30
2022-09-20T01:38:09.833Z,95.40
2022-09-20T01:39:09.825Z,94.68
2022-09-20T01:40:09.905Z,94.68
2022-09-20T01:41:09.837Z,94.68
2022-09-20T01:42:09.794Z,94.78
2022-09-20T01:43:09.794Z,94.68
2022-09-20T01:44:09.787Z,94.78
2022-09-20T01:45:09.796Z,94.58
2022-09-20T01:46:09.787Z,94.58
2022-09-20T01:47:09.761Z,94.68
2022-09-20T01:48:09.755Z,94.27
2022-09-20T01:49:09.853Z,94.89
2022-09-20T01:50:09.764Z,94.17
2022-09-20T01:51:09.690Z,94.58
2022-09-20T01:52:09.694Z,95.09
2022-09-20T01:53:09.698Z,95.50
2022-09-20T01:54:09.665Z,95.71
2022-09-20T01:55:09.674Z,96.33
2022-09-20T01:56:09.673Z,95.20
2022-09-20T01:57:09.628Z,95.30
2022-09-20T01:58:09.632Z,95.30
2022-09-20T01:59:24.903Z,95.61
2022-09-20T02:00:10.603Z,96.37
2022-09-20T02:01:09.666Z,95.75
2022-09-20T02:02:09.695Z,96.06
2022-09-20T02:03:09.608Z,96.06
2022-09-20T02:04:09.577Z,96.17
2022-09-20T02:05:09.570Z,95.86
2022-09-20T02:06:09.557Z,96.06
2022-09-20T02:07:09.521Z,95.55
2022-09-20T02:08:09.522Z,95.65
2022-09-20T02:09:09.538Z,95.55
2022-09-20T02:10:09.536Z,95.65
2022-09-20T02:11:09.483Z,95.50
2022-09-20T02:12:09.492Z,95.34
2022-09-20T02:13:09.479Z,95.61
2022-09-20T02:14:09.453Z,95.24
2022-09-20T02:15:09.509Z,95.86
2022-09-20T02:16:09.487Z,95.45
2022-09-20T02:17:09.420Z,95.75
2022-09-20T02:18:09.422Z,96.17
2022-09-20T02:19:09.447Z,96.21
2022-09-20T02:20:09.401Z,96.21
2022-09-20T02:21:09.380Z,96.00
2022-09-20T02:22:09.446Z,96.11
2022-09-20T02:23:09.443Z,95.53
2022-09-20T02:24:09.416Z,96.36
2022-09-20T02:25:09.339Z,95.99
2022-09-20T02:26:09.337Z,97.02
2022-09-20T02:27:09.307Z,96.61
2022-09-20T02:28:09.322Z,97.27
2022-09-20T02:29:09.306Z,96.86
2022-09-20T02:30:09.332Z,97.31
2022-09-20T02:31:09.286Z,98.14
2022-09-20T02:32:09.274Z,98.35
2022-09-20T02:33:09.240Z,99.11
2022-09-20T02:34:09.272Z,99.11
2022-09-20T02:35:09.264Z,99.16
2022-09-20T02:36:09.225Z,99.16
2022-09-20T02:37:09.204Z,99.37
2022-09-20T02:38:09.207Z,98.90
2022-09-20T02:39:09.186Z,99.99
2022-09-20T02:40:09.282Z,99.99
2022-09-20T02:41:09.161Z,99.99
2022-09-20T02:42:09.249Z,99.99
2022-09-20T02:43:09.143Z,99.99
2022-09-20T02:44:09.160Z,99.99
2022-09-20T02:45:09.148Z,99.60
2022-09-20T02:46:09.194Z,99.23
2022-09-20T02:47:09.093Z,98.67
2022-09-20T02:48:09.246Z,98.88
2022-09-20T02:49:09.077Z,98.88
2022-09-20T02:50:09.094Z,98.57
2022-09-20T02:51:09.079Z,98.57
2022-09-20T02:52:09.058Z,98.67
2022-09-20T02:53:09.021Z,98.57
2022-09-20T02:54:09.042Z,98.77
2022-09-20T02:55:09.028Z,98.50
2022-09-20T02:56:09.007Z,98.10
2022-09-20T02:57:08.982Z,98.50
2022-09-20T02:58:09.056Z,98.50
2022-09-20T02:59:08.976Z,98.50
2022-09-20T03:00:09.023Z,99.74
2022-09-20T03:01:08.986Z,99.33
2022-09-20T03:02:09.023Z,99.18
2022-09-20T03:03:08.955Z,98.57
2022-09-20T03:04:08.914Z,98.15
2022-09-20T03:05:08.908Z,98.46
2022-09-20T03:06:08.907Z,98.05
2022-09-20T03:07:08.905Z,98.00
2022-09-20T03:08:08.860Z,98.05
2022-09-20T03:09:08.900Z,97.80
2022-09-20T03:10:08.889Z,98.25
2022-09-20T03:11:08.824Z,98.05
2022-09-20T03:12:08.853Z,98.05
2022-09-20T03:13:08.837Z,98.05
2022-09-20T03:14:08.911Z,98.25
2022-09-20T03:15:08.789Z,97.90
2022-09-20T03:16:08.821Z,98.15
2022-09-20T03:17:08.840Z,97.95
2022-09-20T03:18:08.763Z,98.00
2022-09-20T03:19:08.745Z,97.64
2022-09-20T03:20:08.753Z,98.05
2022-09-20T03:21:08.794Z,98.21
2022-09-20T03:22:08.715Z,97.64
2022-09-20T03:23:08.717Z,98.11
2022-09-20T03:24:08.702Z,98.11
2022-09-20T03:25:08.705Z,97.49
2022-09-20T03:26:08.664Z,97.18
2022-09-20T03:27:08.684Z,96.97
2022-09-20T03:28:08.688Z,97.39
2022-09-20T03:29:08.693Z,97.18
2022-09-20T03:30:08.653Z,97.28
2022-09-20T03:31:08.611Z,97.28
2022-09-20T03:32:08.719Z,96.97
2022-09-20T03:33:08.591Z,96.97
2022-09-20T03:34:08.605Z,97.08
2022-09-20T03:35:08.634Z,97.28
2022-09-20T03:36:08.623Z,97.28
2022-09-20T03:37:08.558Z,97.23
2022-09-20T03:38:08.554Z,97.69
2022-09-20T03:39:08.533Z,97.64
2022-09-20T03:40:08.594Z,97.53
2022-09-20T03:41:08.545Z,97.95
2022-09-20T03:42:08.501Z,97.89
2022-09-20T03:43:08.491Z,98.36
2022-09-20T03:44:08.580Z,98.82
2022-09-20T03:45:08.485Z,98.82
2022-09-20T03:46:08.554Z,98.36
2022-09-20T03:47:08.474Z,98.46
2022-09-20T03:48:08.431Z,98.05
2022-09-20T03:49:08.468Z,97.95
2022-09-20T03:50:08.416Z,97.23
2022-09-20T03:51:08.422Z,96.92
2022-09-20T03:52:08.384Z,97.33
2022-09-20T03:53:08.380Z,97.23
2022-09-20T03:54:08.472Z,97.43
2022-09-20T03:55:08.370Z,97.27
2022-09-20T03:56:08.335Z,97.64
2022-09-20T03:57:08.445Z,97.38
2022-09-20T03:58:09.081Z,98.30
2022-09-20T03:59:08.376Z,98.50
2022-09-20T04:00:08.364Z,98.30
2022-09-20T04:01:08.425Z,98.50
2022-09-20T04:02:08.400Z,98.92
2022-09-20T04:03:08.277Z,98.61
2022-09-20T04:04:08.310Z,98.61
2022-09-20T04:05:08.290Z,98.71
2022-09-20T04:06:08.231Z,98.71
2022-09-20T04:07:08.373Z,98.82
2022-09-20T04:08:08.246Z,98.61
2022-09-20T04:09:08.249Z,98.50
2022-09-20T04:10:08.203Z,98.30
2022-09-20T04:11:08.214Z,98.50
2022-09-20T04:12:08.173Z,98.50
2022-09-20T04:13:08.197Z,98.46
2022-09-20T04:14:11.274Z,98.15
2022-09-20T04:15:08.201Z,98.05
2022-09-20T04:16:08.161Z,98.30
2022-09-20T04:17:08.176Z,98.25
2022-09-20T04:18:08.098Z,98.05
2022-09-20T04:19:08.144Z,98.25
2022-09-20T04:20:08.110Z,98.36
2022-09-20T04:21:08.062Z,98.05
2022-09-20T04:22:08.064Z,98.05
2022-09-20T04:23:08.076Z,97.85
2022-09-20T04:24:08.026Z,98.30
2022-09-20T04:25:08.050Z,98.88
2022-09-20T04:26:08.008Z,98.50
2022-09-20T04:27:08.014Z,98.30
2022-09-20T04:28:07.996Z,98.10
2022-09-20T04:29:08.083Z,98.10
2022-09-20T04:30:08.026Z,98.10
2022-09-20T04:31:08.006Z,98.24
2022-09-20T04:32:08.008Z,98.45
2022-09-20T04:33:07.967Z,98.55
2022-09-20T04:34:07.969Z,98.66
2022-09-20T04:35:07.911Z,98.80
2022-09-20T04:36:07.974Z,99.73
2022-09-20T04:37:07.891Z,99.90
2022-09-20T04:38:07.894Z,99.84
2022-09-20T04:39:07.889Z,99.48
2022-09-20T04:40:07.976Z,99.48
2022-09-20T04:41:07.858Z,99.48
2022-09-20T04:42:07.883Z,99.90
2022-09-20T04:43:07.847Z,99.38
2022-09-20T04:44:07.889Z,99.90
2022-09-20T04:45:07.837Z,99.90
2022-09-20T04:46:07.859Z,99.79
2022-09-20T04:47:07.774Z,99.90
2022-09-20T04:48:07.790Z,99.69
2022-09-20T04:49:07.761Z,99.79
2022-09-20T04:50:07.849Z,99.27
2022-09-20T04:51:07.808Z,99.02
2022-09-20T04:52:07.769Z,98.71
2022-09-20T04:53:07.744Z,98.92
2022-09-20T04:54:07.734Z,98.71
2022-09-20T04:55:07.731Z,98.71
2022-09-20T04:56:07.698Z,98.82
2022-09-20T04:57:07.710Z,98.30
2022-09-20T04:58:07.687Z,98.71
2022-09-20T04:59:08.234Z,99.02
2022-09-20T05:00:07.651Z,98.61
2022-09-20T05:01:07.695Z,98.45
2022-09-20T05:02:07.751Z,98.86
2022-09-20T05:03:07.631Z,98.35
2022-09-20T05:04:07.647Z,98.45
2022-09-20T05:05:07.630Z,99.17
2022-09-20T05:06:07.572Z,98.82
2022-09-20T05:07:07.570Z,98.97
2022-09-20T05:08:07.636Z,98.97
2022-09-20T05:09:07.574Z,98.97
2022-09-20T05:10:07.827Z,99.07
2022-09-20T05:11:07.549Z,98.76
2022-09-20T05:12:07.560Z,98.50
2022-09-20T05:13:07.505Z,98.45
2022-09-20T05:14:07.532Z,98.66
2022-09-20T05:15:07.525Z,98.14
2022-09-20T05:16:07.535Z,98.19
2022-09-20T05:17:07.553Z,98.39
2022-09-20T05:18:07.455Z,98.80
2022-09-20T05:19:07.467Z,98.96
2022-09-20T05:20:07.457Z,99.00
2022-09-20T05:21:07.409Z,98.79
2022-09-20T05:22:07.407Z,99.82
2022-09-20T05:23:07.397Z,99.66
2022-09-20T05:24:09.484Z,99.98
2022-09-20T05:25:07.416Z,99.99
2022-09-20T05:26:07.399Z,99.99
2022-09-20T05:27:07.344Z,99.99
2022-09-20T05:28:07.430Z,99.99
2022-09-20T05:29:07.345Z,99.99
2022-09-20T05:30:07.417Z,99.99
2022-09-20T05:31:07.365Z,99.99
2022-09-20T05:32:07.373Z,99.99
2022-09-20T05:33:07.307Z,99.99
2022-09-20T05:34:07.344Z,99.99
2022-09-20T05:35:07.286Z,99.99
2022-09-20T05:36:07.274Z,99.99
2022-09-20T05:37:07.262Z,99.99
2022-09-20T05:38:07.279Z,99.99
2022-09-20T05:39:07.233Z,99.99
2022-09-20T05:40:07.261Z,99.99
2022-09-20T05:41:07.209Z,99.99
2022-09-20T05:42:07.239Z,99.99
2022-09-20T05:43:07.185Z,99.99
2022-09-20T05:44:07.318Z,99.99
2022-09-20T05:45:07.199Z,99.99
2022-09-20T05:46:07.197Z,99.99
2022-09-20T05:47:07.171Z,99.99
2022-09-20T05:48:07.149Z,99.85
2022-09-20T05:49:07.134Z,99.70
2022-09-20T05:50:07.116Z,98.25
2022-09-20T05:51:07.092Z,98.36
2022-09-20T05:52:07.108Z,98.67
2022-09-20T05:53:07.070Z,98.25
2022-09-20T05:54:07.054Z,98.46
2022-09-20T05:55:07.048Z,98.32
2022-09-20T05:56:07.052Z,98.52
2022-09-20T05:57:07.033Z,98.05
2022-09-20T05:58:07.053Z,98.46
2022-09-20T05:59:09.927Z,97.95
2022-09-20T06:00:07.014Z,97.69
2022-09-20T06:01:07.030Z,98.05
2022-09-20T06:02:06.990Z,97.90
2022-09-20T06:03:06.999Z,97.60
2022-09-20T06:04:07.023Z,97.18
2022-09-20T06:05:07.046Z,97.18
2022-09-20T06:06:06.944Z,97.18
2022-09-20T06:07:06.930Z,97.39
2022-09-20T06:08:06.914Z,96.88
2022-09-20T06:09:06.936Z,96.97
2022-09-20T06:10:06.965Z,97.34
2022-09-20T06:11:06.897Z,96.21
2022-09-20T06:12:06.856Z,96.83
2022-09-20T06:13:06.855Z,95.96
2022-09-20T06:14:07.308Z,95.61
2022-09-20T06:15:06.873Z,95.61
2022-09-20T06:16:06.812Z,95.30
2022-09-20T06:17:06.801Z,94.33
2022-09-20T06:18:06.900Z,93.46
2022-09-20T06:19:06.838Z,92.29
2022-09-20T06:20:06.796Z,91.42
2022-09-20T06:21:06.799Z,91.22
2022-09-20T06:22:06.750Z,91.59
2022-09-20T06:23:06.748Z,90.23
2022-09-20T06:24:06.780Z,88.90
2022-09-20T06:25:06.709Z,87.88
2022-09-20T06:26:06.712Z,87.43
2022-09-20T06:27:06.697Z,87.14
2022-09-20T06:28:06.698Z,84.95
2022-09-20T06:29:06.687Z,83.52
2022-09-20T06:30:06.725Z,84.48
2022-09-20T06:31:06.705Z,84.69
2022-09-20T06:32:06.673Z,84.41
2022-09-20T06:33:06.668Z,85.18
2022-09-20T06:34:06.609Z,82.73
2022-09-20T06:35:06.653Z,82.73
2022-09-20T06:36:06.606Z,82.49
2022-09-20T06:37:06.600Z,82.32
2022-09-20T06:38:06.672Z,82.69
2022-09-20T06:39:06.562Z,82.59
2022-09-20T06:40:06.617Z,82.79
2022-09-20T06:41:06.564Z,82.92
2022-09-20T06:42:06.590Z,81.35
2022-09-20T06:43:06.560Z,82.23
2022-09-20T06:44:06.631Z,79.30
2022-09-20T06:45:06.617Z,79.71
2022-09-20T06:46:06.544Z,78.45
2022-09-20T06:47:06.483Z,77.60
2022-09-20T06:48:06.570Z,78.15
2022-09-20T06:49:06.491Z,77.57
2022-09-20T06:50:06.466Z,77.87
2022-09-20T06:51:06.482Z,79.03
2022-09-20T06:52:06.421Z,79.17
2022-09-20T06:53:06.426Z,80.61
2022-09-20T06:54:06.437Z,82.21
2022-09-20T06:55:06.420Z,82.17
2022-09-20T06:56:06.407Z,80.56
2022-09-20T06:57:06.401Z,79.27
2022-09-20T06:58:06.392Z,78.52
2022-09-20T06:59:06.573Z,76.45
2022-09-20T07:00:06.384Z,77.43
2022-09-20T07:01:06.407Z,75.09
2022-09-20T07:02:06.400Z,76.68
2022-09-20T07:03:06.311Z,76.85
2022-09-20T07:04:06.383Z,74.31
2022-09-20T07:05:06.285Z,74.78
2022-09-20T07:06:06.266Z,74.88
2022-09-20T07:07:09.449Z,74.65
2022-09-20T07:08:06.248Z,74.65
2022-09-20T07:09:06.369Z,74.48
2022-09-20T07:10:06.222Z,73.97
2022-09-20T07:11:06.235Z,74.74
2022-09-20T07:12:06.271Z,72.96
2022-09-20T07:13:06.214Z,74.48
2022-09-20T07:14:06.391Z,74.68
2022-09-20T07:15:06.183Z,75.82
2022-09-20T07:16:06.214Z,72.55
2022-09-20T07:17:06.202Z,72.17
2022-09-20T07:18:06.158Z,70.83
2022-09-20T07:19:06.151Z,70.93
2022-09-20T07:20:06.121Z,71.97
2022-09-20T07:21:06.109Z,70.76
2022-09-20T07:22:06.177Z,71.53
2022-09-20T07:23:06.106Z,74.82
2022-09-20T07:24:06.134Z,75.73
2022-09-20T07:25:06.110Z,74.85
2022-09-20T07:26:06.050Z,73.49
2022-09-20T07:27:06.068Z,72.34
2022-09-20T07:28:06.042Z,71.09
2022-09-20T07:29:06.208Z,71.30
2022-09-20T07:30:06.013Z,70.65
2022-09-20T07:31:06.010Z,73.52
2022-09-20T07:32:05.985Z,69.95
2022-09-20T07:33:06.002Z,74.10
2022-09-20T07:34:06.010Z,74.54
2022-09-20T07:35:05.974Z,73.02
2022-09-20T07:36:05.966Z,74.31
2022-09-20T07:37:06.028Z,76.21
2022-09-20T07:38:05.924Z,74.88
2022-09-20T07:39:05.955Z,74.37
2022-09-20T07:40:05.967Z,72.45
2022-09-20T07:41:05.927Z,73.53
2022-09-20T07:42:05.874Z,73.39
2022-09-20T07:43:05.882Z,70.12
2022-09-20T07:44:06.008Z,72.52
2022-09-20T07:45:06.065Z,73.72
2022-09-20T07:46:05.902Z,70.89
2022-09-20T07:47:05.819Z,68.54
2022-09-20T07:48:05.813Z,69.55
2022-09-20T07:49:05.875Z,69.21
2022-09-20T07:50:05.815Z,70.02
2022-09-20T07:51:08.767Z,67.16
2022-09-20T07:52:05.780Z,65.01
2022-09-20T07:53:05.763Z,65.29
2022-09-20T07:54:05.806Z,64.62
2022-09-20T07:55:05.802Z,72.14
2022-09-20T07:56:05.764Z,63.65
2022-09-20T07:57:05.744Z,62.38
2022-09-20T07:58:05.730Z,61.83
2022-09-20T07:59:05.868Z,67.83
2022-09-20T08:00:05.729Z,67.52
2022-09-20T08:01:05.729Z,70.42
2022-09-20T08:02:05.779Z,71.53
2022-09-20T08:03:05.640Z,69.45
2022-09-20T08:04:05.694Z,66.48
2022-09-20T08:05:05.666Z,70.36
2022-09-20T08:06:05.611Z,66.69
2022-09-20T08:07:05.630Z,64.33
2022-09-20T08:08:05.626Z,67.09
2022-09-20T08:09:10.243Z,67.63
2022-09-20T08:10:06.611Z,70.02
2022-09-20T08:11:05.586Z,68.51
2022-09-20T08:14:07.697Z,72.78
2022-09-20T08:15:08.517Z,67.63
2022-09-20T08:16:06.500Z,68.57
2022-09-20T08:17:05.502Z,67.37
2022-09-20T08:18:05.636Z,65.62
2022-09-20T08:19:05.489Z,63.68
2022-09-20T08:20:05.507Z,62.35
2022-09-20T08:21:05.466Z,65.97
2022-09-20T08:22:05.470Z,63.22
2022-09-20T08:23:22.537Z,62.19
2022-09-20T08:24:06.457Z,64.90
2022-09-20T08:25:05.423Z,63.67
2022-09-20T08:26:07.032Z,65.33
2022-09-20T08:27:05.495Z,64.26
2022-09-20T08:28:05.379Z,64.80
2022-09-20T08:29:05.539Z,65.73
2022-09-20T08:30:05.362Z,66.84
2022-09-20T08:31:05.338Z,66.41
2022-09-20T08:32:05.389Z,63.22
2022-09-20T08:33:05.314Z,64.93
2022-09-20T08:34:05.335Z,64.39
2022-09-20T08:35:05.287Z,66.13
2022-09-20T08:36:05.280Z,67.68
2022-09-20T08:37:05.280Z,65.53
2022-09-20T08:40:06.483Z,63.95
2022-09-20T08:41:05.250Z,65.29
2022-09-20T08:42:05.252Z,65.82
2022-09-20T08:43:05.518Z,69.15
2022-09-20T08:44:05.427Z,67.57
2022-09-20T08:45:05.214Z,65.95
2022-09-20T08:46:05.603Z,66.46
2022-09-20T08:47:05.186Z,71.17
2022-09-20T08:48:05.167Z,67.40
2022-09-20T08:49:05.509Z,68.28
2022-09-20T08:50:16.827Z,69.45
2022-09-20T08:51:06.141Z,64.29
2022-09-20T08:52:10.377Z,65.96
2022-09-20T08:53:06.111Z,67.97
2022-09-20T08:54:05.669Z,70.93
2022-09-20T08:55:07.713Z,69.05
2022-09-20T08:56:05.083Z,70.90
2022-09-20T08:57:05.100Z,72.91
2022-09-20T08:58:08.741Z,68.55
2022-09-20T08:59:05.141Z,70.43
2022-09-20T09:00:05.053Z,66.87
2022-09-20T09:01:05.084Z,72.14
2022-09-20T09:02:05.058Z,67.98
2022-09-20T09:03:04.986Z,67.55
2022-09-20T09:04:05.104Z,68.85
2022-09-20T09:05:05.029Z,68.82
2022-09-20T09:06:10.336Z,66.91
2022-09-20T09:07:05.942Z,67.98
2022-09-20T09:08:05.159Z,70.03
2022-09-20T09:09:04.938Z,65.57
2022-09-20T09:10:05.124Z,65.10
2022-09-20T09:11:04.906Z,66.98
2022-09-20T09:12:04.917Z,66.28
2022-09-20T09:13:05.004Z,65.03
2022-09-20T09:14:04.951Z,68.38
2022-09-20T09:15:04.907Z,67.68
2022-09-20T09:16:04.894Z,67.21
2022-09-20T09:17:04.923Z,68.08
2022-09-20T09:18:04.812Z,69.56
2022-09-20T09:19:04.998Z,67.82
2022-09-20T09:20:04.797Z,67.51
2022-09-20T09:21:04.807Z,65.64
2022-09-20T09:22:04.950Z,66.64
2022-09-20T09:23:04.783Z,67.21
2022-09-20T09:24:04.771Z,64.97
2022-09-20T09:25:04.743Z,65.57
2022-09-20T09:26:04.782Z,67.05
2022-09-20T09:27:04.713Z,67.28
2022-09-20T09:28:04.710Z,68.85
2022-09-20T09:29:04.739Z,70.03
2022-09-20T09:30:04.693Z,67.52
2022-09-20T09:31:04.722Z,67.52
2022-09-20T09:32:04.710Z,63.57
2022-09-20T09:33:04.653Z,62.70
2022-09-20T09:34:04.802Z,68.35
2022-09-20T09:35:04.633Z,63.03
2022-09-20T09:36:04.651Z,63.26
2022-09-20T09:37:04.654Z,65.77
2022-09-20T09:38:04.609Z,67.68
2022-09-20T09:39:04.659Z,67.04
2022-09-20T09:40:04.632Z,66.03
2022-09-20T09:41:04.598Z,69.76
2022-09-20T09:42:04.555Z,68.59
2022-09-20T09:43:04.546Z,67.74
2022-09-20T09:44:04.547Z,65.70
2022-09-20T09:45:04.539Z,68.82
2022-09-20T09:46:04.619Z,66.71
2022-09-20T09:47:04.545Z,68.55
2022-09-20T09:48:04.494Z,65.51
2022-09-20T09:49:05.119Z,64.34
2022-09-20T09:50:08.906Z,62.30
2022-09-20T09:51:05.454Z,64.51
2022-09-20T09:52:04.506Z,63.64
2022-09-20T09:53:04.492Z,62.54
2022-09-20T09:54:04.476Z,64.75
2022-09-20T09:55:05.820Z,63.33
2022-09-20T09:56:04.410Z,65.31
2022-09-20T09:57:04.396Z,65.58
2022-09-20T09:58:04.388Z,63.14
2022-09-20T09:59:04.414Z,61.71
2022-09-20T10:00:10.085Z,61.61
2022-09-20T10:01:05.454Z,63.60
2022-09-20T10:02:04.410Z,65.44
2022-09-20T10:03:04.368Z,67.02
2022-09-20T10:04:04.391Z,66.75
2022-09-20T10:05:04.361Z,61.11
2022-09-20T10:06:04.300Z,60.36
2022-09-20T10:07:04.286Z,62.03
2022-09-20T10:08:04.295Z,62.23
2022-09-20T10:09:04.337Z,63.23
2022-09-20T10:10:04.259Z,67.11
2022-09-20T10:11:04.327Z,61.52
2022-09-20T10:12:04.293Z,63.70
2022-09-20T10:13:04.291Z,63.73
2022-09-20T10:14:04.212Z,68.88
2022-09-20T10:15:04.199Z,68.72
2022-09-20T10:16:04.197Z,63.37
2022-09-20T10:17:04.205Z,61.52
2022-09-20T10:18:04.191Z,63.67
2022-09-20T10:19:04.299Z,64.11
2022-09-20T10:20:04.185Z,61.84
2022-09-20T10:21:04.156Z,65.12
2022-09-20T10:22:04.174Z,67.09
2022-09-20T10:23:34.875Z,65.02
2022-09-20T10:24:05.250Z,62.52
2022-09-20T10:25:04.099Z,59.28
2022-09-20T10:26:04.142Z,61.02
2022-09-20T10:27:04.156Z,62.29
2022-09-20T10:28:04.060Z,63.36
2022-09-20T10:29:04.061Z,61.79
2022-09-20T10:30:04.035Z,61.85
2022-09-20T10:31:04.053Z,65.06
2022-09-20T10:32:04.138Z,63.02
2022-09-20T10:33:04.026Z,62.79
2022-09-20T10:34:04.016Z,62.26
2022-09-20T10:35:03.998Z,61.94
2022-09-20T10:36:03.979Z,63.11
2022-09-20T10:37:03.969Z,64.14
2022-09-20T10:38:04.016Z,66.76
2022-09-20T10:39:03.999Z,65.65
2022-09-20T10:40:03.999Z,66.16
2022-09-20T10:41:04.008Z,66.36
2022-09-20T10:42:03.953Z,65.92
2022-09-20T10:43:03.954Z,68.81
2022-09-20T10:44:05.590Z,64.22
2022-09-20T10:45:03.976Z,64.99
2022-09-20T10:46:27.905Z,64.99
2022-09-20T10:47:04.942Z,64.29
2022-09-20T10:48:03.841Z,64.56
2022-09-20T10:49:03.888Z,63.82
2022-09-20T10:50:03.822Z,63.15
2022-09-20T10:51:03.853Z,66.54
2022-09-20T10:52:03.807Z,63.25
2022-09-20T10:53:03.924Z,65.42
2022-09-20T10:54:03.803Z,65.42
2022-09-20T10:55:03.898Z,65.59
2022-09-20T10:56:03.760Z,68.78
2022-09-20T10:57:03.865Z,64.06
2022-09-20T10:58:03.731Z,65.64
2022-09-20T10:59:03.768Z,67.42
2022-09-20T11:00:03.721Z,65.71
2022-09-20T11:01:03.833Z,60.39
2022-09-20T11:02:03.839Z,63.04
2022-09-20T11:03:03.697Z,61.11
2022-09-20T11:04:03.702Z,59.55
2022-09-20T11:05:03.665Z,59.72
2022-09-20T11:06:03.666Z,61.49
2022-09-20T11:07:03.674Z,59.06
2022-09-20T11:08:03.625Z,61.10
2022-09-20T11:09:03.625Z,63.94
2022-09-20T11:10:03.658Z,56.16
2022-09-20T11:11:03.621Z,59.65
2022-09-20T11:12:03.618Z,59.12
2022-09-20T11:13:03.613Z,58.23
2022-09-20T11:14:03.585Z,55.96
2022-09-20T11:15:03.610Z,57.82
2022-09-20T11:16:03.539Z,55.39
2022-09-20T11:17:03.628Z,58.58
2022-09-20T11:18:03.521Z,61.47
2022-09-20T11:19:03.749Z,62.33
2022-09-20T11:20:07.147Z,64.17
2022-09-20T11:21:03.531Z,62.85
2022-09-20T11:22:03.486Z,65.39
2022-09-20T11:23:03.492Z,66.60
2022-09-20T11:24:03.478Z,68.59
2022-09-20T11:25:03.484Z,67.51
2022-09-20T11:26:03.434Z,70.32
2022-09-20T11:27:03.428Z,65.73
2022-09-20T11:28:03.418Z,65.29
2022-09-20T11:29:03.449Z,66.90
2022-09-20T11:30:03.477Z,71.36
2022-09-20T11:31:03.441Z,65.12
2022-09-20T11:32:03.516Z,68.44
2022-09-20T11:33:03.392Z,67.74
2022-09-20T11:34:03.351Z,66.94
2022-09-20T11:35:03.375Z,66.93
2022-09-20T11:36:03.342Z,67.97
2022-09-20T11:37:03.473Z,68.81
2022-09-20T11:38:03.367Z,69.62
2022-09-20T11:39:03.321Z,69.24
2022-09-20T11:40:03.364Z,65.61
2022-09-20T11:41:03.316Z,66.82
2022-09-20T11:42:03.267Z,66.05
2022-09-20T11:43:03.269Z,65.24
2022-09-20T11:44:03.325Z,66.25
2022-09-20T11:45:03.239Z,68.00
2022-09-20T11:46:03.315Z,66.21
2022-09-20T11:47:03.221Z,69.92
2022-09-20T11:48:03.200Z,67.60
2022-09-20T11:49:03.216Z,67.69
2022-09-20T11:50:03.194Z,67.97
2022-09-20T11:51:03.174Z,66.99
2022-09-20T11:52:03.151Z,63.76
2022-09-20T11:53:03.144Z,58.07
2022-09-20T11:54:03.152Z,58.65
2022-09-20T11:55:03.138Z,57.89
2022-09-20T11:56:03.140Z,53.63
2022-09-20T11:57:03.136Z,53.88
2022-09-20T11:58:03.090Z,54.33
2022-09-20T11:59:03.098Z,55.91
2022-09-20T12:00:03.084Z,54.55
2022-09-20T12:01:03.051Z,53.02
2022-09-20T12:02:03.150Z,51.79
2022-09-20T12:03:03.258Z,54.35
2022-09-20T12:04:31.124Z,52.14
2022-09-20T12:05:04.023Z,54.53
2022-09-20T12:06:03.062Z,55.03
2022-09-20T12:07:08.305Z,54.17
2022-09-20T12:08:04.069Z,52.32
2022-09-20T12:09:03.019Z,52.67
2022-09-20T12:10:02.977Z,58.04
2022-09-20T12:11:02.966Z,56.65
2022-09-20T12:12:03.080Z,52.01
2022-09-20T12:13:02.963Z,51.62
2022-09-20T12:14:02.930Z,52.55
2022-09-20T12:15:02.938Z,54.02
2022-09-20T12:16:03.045Z,52.17
2022-09-20T12:17:02.890Z,53.25
2022-09-20T12:18:08.228Z,53.72
2022-09-20T12:19:03.988Z,55.95
2022-09-20T12:20:02.864Z,52.49
2022-09-20T12:21:02.839Z,53.55
2022-09-20T12:22:02.838Z,54.62
2022-09-20T12:23:02.865Z,51.81
2022-09-20T12:24:02.811Z,54.71
2022-09-20T12:25:02.845Z,55.03
2022-09-20T12:26:02.823Z,56.44
2022-09-20T12:27:02.787Z,57.88
2022-09-20T12:28:02.843Z,57.20
2022-09-20T12:29:02.784Z,57.32
2022-09-20T12:30:02.743Z,56.49
2022-09-20T12:31:02.778Z,54.83
2022-09-20T12:32:02.763Z,57.57
2022-09-20T12:33:02.707Z,54.43
2022-09-20T12:34:02.817Z,61.04
2022-09-20T12:35:02.706Z,53.69
2022-09-20T12:36:02.676Z,56.74
2022-09-20T12:37:02.717Z,48.66
2022-09-20T12:38:02.671Z,52.59
2022-09-20T12:39:02.737Z,49.91
2022-09-20T12:40:02.733Z,51.87
2022-09-20T12:41:02.620Z,52.22
2022-09-20T12:42:02.611Z,51.72
2022-09-20T12:43:02.624Z,50.89
2022-09-20T12:44:02.642Z,51.17
2022-09-20T12:45:02.603Z,47.47
2022-09-20T12:46:06.345Z,47.72
2022-09-20T12:47:03.559Z,51.72
2022-09-20T12:48:02.553Z,48.88
2022-09-20T12:49:02.535Z,47.77
2022-09-20T12:50:02.548Z,48.78
2022-09-20T12:51:02.517Z,48.78
2022-09-20T12:52:02.516Z,48.96
2022-09-20T12:53:02.517Z,50.63
2022-09-20T12:54:02.487Z,49.31
2022-09-20T12:55:06.562Z,48.75
2022-09-20T12:56:03.474Z,49.68